sensor_id;sensor_type;location;lat;lon;timestamp;pressure;altitude;pressure_sealevel;temperature;humidity
28665;BME280;15850;47.524;7.814;2023-05-25T00:02:25;97590.81;;;7.63;100.00
28665;BME280;15850;47.524;7.814;2023-05-25T00:04:50;97900.53;;;9.67;100.00
28665;BME280;15850;47.524;7.814;2023-05-25T00:07:16;97510.13;;;7.30;100.00
28665;BME280;15850;47.524;7.814;2023-05-25T00:09:42;97723.03;;;8.13;100.00
28665;BME280;15850;47.524;7.814;2023-05-25T00:12:07;97816.59;;;8.98;100.00
28665;BME280;15850;47.524;7.814;2023-05-25T00:14:33;97508.19;;;7.05;100.00
28665;BME280;15850;47.524;7.814;2023-05-25T00:17:00;97905.91;;;9.84;100.00
28665;BME280;15850;47.524;7.814;2023-05-25T00:19:26;97278.53;;;5.78;100.00
28665;BME280;15850;47.524;7.814;2023-05-25T00:21:52;97858.25;;;9.57;100.00
28665;BME280;15850;47.524;7.814;2023-05-25T00:24:17;97469.69;;;7.08;100.00
28665;BME280;15850;47.524;7.814;2023-05-25T00:26:43;97898.25;;;9.78;100.00
28665;BME280;15850;47.524;7.814;2023-05-25T00:29:09;97170.53;;;5.35;100.00
28665;BME280;15850;47.524;7.814;2023-05-25T00:31:34;97595.69;;;8.13;100.00
28665;BME280;15850;47.524;7.814;2023-05-25T00:34:01;97799.56;;;9.27;100.00
28665;BME280;15850;47.524;7.814;2023-05-25T00:36:27;97917.84;;;10.30;100.00
28665;BME280;15850;47.524;7.814;2023-05-25T00:38:53;97742.66;;;9.39;100.00
28665;BME280;15850;47.524;7.814;2023-05-25T00:41:19;97807.94;;;9.81;100.00
28665;BME280;15850;47.524;7.814;2023-05-25T00:43:45;97889.41;;;10.19;100.00
28665;BME280;15850;47.524;7.814;2023-05-25T00:46:12;97881.22;;;10.28;100.00
28665;BME280;15850;47.524;7.814;2023-05-25T00:48:38;97891.31;;;10.27;100.00
28665;BME280;15850;47.524;7.814;2023-05-25T00:51:06;97674.66;;;8.97;100.00
28665;BME280;15850;47.524;7.814;2023-05-25T00:53:31;97254.59;;;6.38;100.00
28665;BME280;15850;47.524;7.814;2023-05-25T00:56:03;97611.59;;;8.70;100.00
28665;BME280;15850;47.524;7.814;2023-05-25T00:58:32;97855.81;;;9.94;100.00
28665;BME280;15850;47.524;7.814;2023-05-25T01:01:00;97434.19;;;7.27;100.00
28665;BME280;15850;47.524;7.814;2023-05-25T01:03:30;97870.47;;;10.31;100.00
28665;BME280;15850;47.524;7.814;2023-05-25T01:05:57;97852.91;;;10.29;100.00
28665;BME280;15850;47.524;7.814;2023-05-25T01:08:26;97870.88;;;10.42;100.00
28665;BME280;15850;47.524;7.814;2023-05-25T01:10:52;97794.56;;;9.97;100.00
28665;BME280;15850;47.524;7.814;2023-05-25T01:13:19;97764.84;;;9.71;100.00
28665;BME280;15850;47.524;7.814;2023-05-25T01:15:46;97627.47;;;8.89;100.00
28665;BME280;15850;47.524;7.814;2023-05-25T01:18:13;97832.13;;;10.24;100.00
28665;BME280;15850;47.524;7.814;2023-05-25T01:20:57;97432.84;;;7.59;100.00
28665;BME280;15850;47.524;7.814;2023-05-25T01:23:29;97201.34;;;6.38;100.00
28665;BME280;15850;47.524;7.814;2023-05-25T01:25:58;97856.94;;;10.65;100.00
28665;BME280;15850;47.524;7.814;2023-05-25T01:28:29;97697.72;;;9.92;100.00
28665;BME280;15850;47.524;7.814;2023-05-25T01:30:56;97188.50;;;6.82;91.60
28665;BME280;15850;47.524;7.814;2023-05-25T01:33:23;97609.38;;;9.86;98.52
28665;BME280;15850;47.524;7.814;2023-05-25T01:35:51;97871.94;;;11.37;100.00
28665;BME280;15850;47.524;7.814;2023-05-25T01:38:17;97817.72;;;10.99;100.00
28665;BME280;15850;47.524;7.814;2023-05-25T01:40:42;97867.28;;;11.38;98.06
28665;BME280;15850;47.524;7.814;2023-05-25T01:43:08;97842.78;;;11.50;89.96
28665;BME280;15850;47.524;7.814;2023-05-25T01:45:34;97868.69;;;11.81;87.72
28665;BME280;15850;47.524;7.814;2023-05-25T01:48:05;97867.22;;;11.71;85.89
28665;BME280;15850;47.524;7.814;2023-05-25T01:50:36;97882.31;;;11.81;88.96
28665;BME280;15850;47.524;7.814;2023-05-25T01:53:09;97551.16;;;9.75;99.10
28665;BME280;15850;47.524;7.814;2023-05-25T01:55:42;97865.88;;;11.77;93.43
28665;BME280;15850;47.524;7.814;2023-05-25T01:58:13;97865.16;;;11.68;100.00
28665;BME280;15850;47.524;7.814;2023-05-25T02:00:40;97769.31;;;11.04;100.00
28665;BME280;15850;47.524;7.814;2023-05-25T02:03:06;97818.38;;;11.53;91.57
28665;BME280;15850;47.524;7.814;2023-05-25T02:05:32;97698.59;;;10.71;92.19
28665;BME280;15850;47.524;7.814;2023-05-25T02:07:58;97812.56;;;11.31;99.06
28665;BME280;15850;47.524;7.814;2023-05-25T02:10:25;97863.69;;;11.70;98.83
28665;BME280;15850;47.524;7.814;2023-05-25T02:12:51;97873.56;;;11.50;100.00
28665;BME280;15850;47.524;7.814;2023-05-25T02:15:17;97865.63;;;11.58;100.00
28665;BME280;15850;47.524;7.814;2023-05-25T02:17:42;97441.78;;;8.99;94.60
28665;BME280;15850;47.524;7.814;2023-05-25T02:20:09;97836.56;;;11.49;99.95
28665;BME280;15850;47.524;7.814;2023-05-25T02:22:35;97370.75;;;8.64;100.00
28665;BME280;15850;47.524;7.814;2023-05-25T02:25:00;97848.38;;;11.78;96.70
28665;BME280;15850;47.524;7.814;2023-05-25T02:27:29;97850.53;;;11.60;96.56
28665;BME280;15850;47.524;7.814;2023-05-25T02:29:55;97750.25;;;11.04;100.00
28665;BME280;15850;47.524;7.814;2023-05-25T02:32:23;97711.59;;;10.66;94.05
28665;BME280;15850;47.524;7.814;2023-05-25T02:34:49;97626.75;;;10.27;100.00
28665;BME280;15850;47.524;7.814;2023-05-25T02:37:16;97600.72;;;10.05;98.45
28665;BME280;15850;47.524;7.814;2023-05-25T02:39:41;97843.78;;;11.45;100.00
28665;BME280;15850;47.524;7.814;2023-05-25T02:42:07;97715.69;;;10.72;98.34
28665;BME280;15850;47.524;7.814;2023-05-25T02:44:37;97803.03;;;11.24;90.74
28665;BME280;15850;47.524;7.814;2023-05-25T02:47:03;97717.44;;;10.76;88.90
28665;BME280;15850;47.524;7.814;2023-05-25T02:49:29;97548.00;;;9.52;100.00
28665;BME280;15850;47.524;7.814;2023-05-25T02:51:54;97850.44;;;11.69;92.21
28665;BME280;15850;47.524;7.814;2023-05-25T02:54:20;97540.59;;;9.40;100.00
28665;BME280;15850;47.524;7.814;2023-05-25T02:56:45;97771.81;;;11.10;85.74
28665;BME280;15850;47.524;7.814;2023-05-25T02:59:13;97824.50;;;11.50;93.58
28665;BME280;15850;47.524;7.814;2023-05-25T03:01:40;97854.97;;;11.77;87.96
28665;BME280;15850;47.524;7.814;2023-05-25T03:04:06;97780.00;;;11.34;93.15
28665;BME280;15850;47.524;7.814;2023-05-25T03:06:35;97863.72;;;11.83;88.38
28665;BME280;15850;47.524;7.814;2023-05-25T03:09:07;97839.75;;;11.76;91.71
28665;BME280;15850;47.524;7.814;2023-05-25T03:11:32;97862.50;;;11.92;87.62
28665;BME280;15850;47.524;7.814;2023-05-25T03:13:59;97745.28;;;11.31;96.99
28665;BME280;15850;47.524;7.814;2023-05-25T03:16:26;97847.25;;;11.91;88.20
28665;BME280;15850;47.524;7.814;2023-05-25T03:18:54;97739.72;;;11.27;93.88
28665;BME280;15850;47.524;7.814;2023-05-25T03:21:19;97630.53;;;10.47;86.32
28665;BME280;15850;47.524;7.814;2023-05-25T03:23:45;97852.94;;;11.86;81.42
28665;BME280;15850;47.524;7.814;2023-05-25T03:26:10;97580.19;;;9.95;84.77
28665;BME280;15850;47.524;7.814;2023-05-25T03:28:36;97642.22;;;10.47;84.56
28665;BME280;15850;47.524;7.814;2023-05-25T03:31:02;97625.66;;;10.40;80.43
28665;BME280;15850;47.524;7.814;2023-05-25T03:33:27;97739.72;;;11.40;76.91
28665;BME280;15850;47.524;7.814;2023-05-25T03:35:54;97588.72;;;10.06;89.71
28665;BME280;15850;47.524;7.814;2023-05-25T03:38:21;97413.03;;;8.65;80.76
28665;BME280;15850;47.524;7.814;2023-05-25T03:40:46;97251.06;;;7.69;79.28
28665;BME280;15850;47.524;7.814;2023-05-25T03:43:12;97591.09;;;10.07;80.41
28665;BME280;15850;47.524;7.814;2023-05-25T03:45:38;97370.84;;;8.55;75.21
28665;BME280;15850;47.524;7.814;2023-05-25T03:48:04;97824.31;;;11.56;83.74
28665;BME280;15850;47.524;7.814;2023-05-25T03:50:30;97863.19;;;11.89;83.45
28665;BME280;15850;47.524;7.814;2023-05-25T03:52:57;97545.66;;;9.62;85.40
28665;BME280;15850;47.524;7.814;2023-05-25T03:55:23;97843.13;;;11.48;82.96
28665;BME280;15850;47.524;7.814;2023-05-25T03:57:49;97791.00;;;11.13;84.48
28665;BME280;15850;47.524;7.814;2023-05-25T04:00:15;97864.59;;;11.74;84.08
28665;BME280;15850;47.524;7.814;2023-05-25T04:02:41;97622.72;;;10.12;82.24
28665;BME280;15850;47.524;7.814;2023-05-25T04:05:08;97641.88;;;10.16;81.67
28665;BME280;15850;47.524;7.814;2023-05-25T04:07:33;97863.34;;;11.72;81.49
28665;BME280;15850;47.524;7.814;2023-05-25T04:10:00;97779.06;;;11.18;93.65
28665;BME280;15850;47.524;7.814;2023-05-25T04:12:26;97867.44;;;11.53;93.36
28665;BME280;15850;47.524;7.814;2023-05-25T04:14:51;97602.97;;;9.70;86.93
28665;BME280;15850;47.524;7.814;2023-05-25T04:17:17;97883.53;;;11.59;82.48
28665;BME280;15850;47.524;7.814;2023-05-25T04:19:43;97882.78;;;11.70;86.05
28665;BME280;15850;47.524;7.814;2023-05-25T04:22:08;97643.66;;;10.11;84.49
28665;BME280;15850;47.524;7.814;2023-05-25T04:24:34;97881.22;;;11.94;85.59
28665;BME280;15850;47.524;7.814;2023-05-25T04:27:01;97794.44;;;11.47;81.83
28665;BME280;15850;47.524;7.814;2023-05-25T04:29:27;97845.69;;;11.90;87.11
28665;BME280;15850;47.524;7.814;2023-05-25T04:32:16;97894.28;;;12.25;88.53
28665;BME280;15850;47.524;7.814;2023-05-25T04:34:46;97842.47;;;11.88;100.00
28665;BME280;15850;47.524;7.814;2023-05-25T04:37:17;97598.44;;;10.28;100.00
28665;BME280;15850;47.524;7.814;2023-05-25T04:39:44;97746.31;;;11.26;100.00
28665;BME280;15850;47.524;7.814;2023-05-25T04:42:10;97747.19;;;11.06;99.67
28665;BME280;15850;47.524;7.814;2023-05-25T04:44:36;97895.19;;;12.05;94.26
28665;BME280;15850;47.524;7.814;2023-05-25T04:47:04;97777.06;;;11.39;100.00
28665;BME280;15850;47.524;7.814;2023-05-25T04:49:32;97844.53;;;12.04;100.00
28665;BME280;15850;47.524;7.814;2023-05-25T04:51:57;97787.06;;;11.60;94.17
28665;BME280;15850;47.524;7.814;2023-05-25T04:54:24;97899.44;;;12.67;83.48
28665;BME280;15850;47.524;7.814;2023-05-25T04:56:50;97861.88;;;12.36;73.74
28665;BME280;15850;47.524;7.814;2023-05-25T04:59:17;97900.25;;;12.96;73.18
28665;BME280;15850;47.524;7.814;2023-05-25T05:01:42;97901.50;;;12.98;72.99
28665;BME280;15850;47.524;7.814;2023-05-25T05:04:10;97877.03;;;13.02;69.94
28665;BME280;15850;47.524;7.814;2023-05-25T05:06:37;97897.38;;;13.32;66.97
28665;BME280;15850;47.524;7.814;2023-05-25T05:09:03;97907.41;;;13.72;68.87
28665;BME280;15850;47.524;7.814;2023-05-25T05:11:29;97879.53;;;13.67;70.18
28665;BME280;15850;47.524;7.814;2023-05-25T05:13:55;97908.09;;;13.69;63.91
28665;BME280;15850;47.524;7.814;2023-05-25T05:16:22;97598.28;;;11.75;62.71
28665;BME280;15850;47.524;7.814;2023-05-25T05:18:47;97812.16;;;13.27;66.67
28665;BME280;15850;47.524;7.814;2023-05-25T05:21:13;97909.00;;;13.89;66.67
28665;BME280;15850;47.524;7.814;2023-05-25T05:23:41;97826.06;;;13.37;64.14
28665;BME280;15850;47.524;7.814;2023-05-25T05:26:07;97908.03;;;13.97;70.68
28665;BME280;15850;47.524;7.814;2023-05-25T05:28:33;97915.66;;;13.60;70.29
28665;BME280;15850;47.524;7.814;2023-05-25T05:30:58;97925.88;;;13.47;74.47
28665;BME280;15850;47.524;7.814;2023-05-25T05:33:34;97396.97;;;10.21;77.55
28665;BME280;15850;47.524;7.814;2023-05-25T05:36:01;97537.59;;;10.94;76.01
28665;BME280;15850;47.524;7.814;2023-05-25T05:38:26;97907.91;;;13.46;77.70
28665;BME280;15850;47.524;7.814;2023-05-25T05:40:52;97910.34;;;13.35;71.50
28665;BME280;15850;47.524;7.814;2023-05-25T05:43:21;97910.97;;;13.29;75.23
28665;BME280;15850;47.524;7.814;2023-05-25T05:45:46;97914.47;;;13.29;75.94
28665;BME280;15850;47.524;7.814;2023-05-25T05:48:12;97896.53;;;13.16;79.29
28665;BME280;15850;47.524;7.814;2023-05-25T05:50:39;97844.34;;;12.77;82.23
28665;BME280;15850;47.524;7.814;2023-05-25T05:53:05;97820.19;;;13.07;76.35
28665;BME280;15850;47.524;7.814;2023-05-25T05:55:31;97913.66;;;13.89;80.02
28665;BME280;15850;47.524;7.814;2023-05-25T05:57:56;97861.09;;;13.32;82.29
28665;BME280;15850;47.524;7.814;2023-05-25T06:00:22;97928.50;;;13.72;83.19
28665;BME280;15850;47.524;7.814;2023-05-25T06:02:49;97930.56;;;13.19;88.28
28665;BME280;15850;47.524;7.814;2023-05-25T06:05:19;97931.59;;;12.74;93.30
28665;BME280;15850;47.524;7.814;2023-05-25T06:07:46;97934.59;;;12.68;89.04
28665;BME280;15850;47.524;7.814;2023-05-25T06:10:12;97903.91;;;12.87;85.71
28665;BME280;15850;47.524;7.814;2023-05-25T06:12:38;97935.38;;;13.37;81.29
28665;BME280;15850;47.524;7.814;2023-05-25T06:15:05;97857.66;;;12.79;80.43
28665;BME280;15850;47.524;7.814;2023-05-25T06:17:33;97942.06;;;13.68;78.33
28665;BME280;15850;47.524;7.814;2023-05-25T06:19:58;97939.78;;;13.26;84.60
28665;BME280;15850;47.524;7.814;2023-05-25T06:22:24;97871.66;;;13.05;85.62
28665;BME280;15850;47.524;7.814;2023-05-25T06:24:52;97949.41;;;13.96;83.51
28665;BME280;15850;47.524;7.814;2023-05-25T06:27:18;97950.09;;;13.77;80.95
28665;BME280;15850;47.524;7.814;2023-05-25T06:29:43;97889.94;;;12.49;86.10
28665;BME280;15850;47.524;7.814;2023-05-25T06:32:09;97911.47;;;12.78;89.39
28665;BME280;15850;47.524;7.814;2023-05-25T06:34:35;97928.69;;;12.54;85.24
28665;BME280;15850;47.524;7.814;2023-05-25T06:37:00;97918.03;;;12.37;85.61
28665;BME280;15850;47.524;7.814;2023-05-25T06:39:26;97947.81;;;12.17;92.27
28665;BME280;15850;47.524;7.814;2023-05-25T06:41:53;97871.78;;;11.79;92.39
28665;BME280;15850;47.524;7.814;2023-05-25T06:44:27;97949.19;;;12.36;93.15
28665;BME280;15850;47.524;7.814;2023-05-25T06:46:53;97829.53;;;11.97;90.26
28665;BME280;15850;47.524;7.814;2023-05-25T06:49:18;97708.53;;;11.13;88.46
28665;BME280;15850;47.524;7.814;2023-05-25T06:51:44;97983.28;;;13.07;88.89
28665;BME280;15850;47.524;7.814;2023-05-25T06:54:09;97968.50;;;13.08;85.87
28665;BME280;15850;47.524;7.814;2023-05-25T06:56:35;97965.00;;;13.79;85.22
28665;BME280;15850;47.524;7.814;2023-05-25T06:59:02;97917.88;;;13.70;83.22
28665;BME280;15850;47.524;7.814;2023-05-25T07:01:27;97959.72;;;13.43;79.58
28665;BME280;15850;47.524;7.814;2023-05-25T07:03:53;97963.59;;;13.01;84.90
28665;BME280;15850;47.524;7.814;2023-05-25T07:06:19;97967.31;;;13.21;82.44
28665;BME280;15850;47.524;7.814;2023-05-25T07:08:44;97885.91;;;12.99;80.43
28665;BME280;15850;47.524;7.814;2023-05-25T07:11:10;97960.25;;;13.32;82.46
28665;BME280;15850;47.524;7.814;2023-05-25T07:13:35;97961.72;;;13.17;80.75
28665;BME280;15850;47.524;7.814;2023-05-25T07:16:02;97966.78;;;13.44;79.90
28665;BME280;15850;47.524;7.814;2023-05-25T07:18:28;97966.78;;;13.88;76.43
28665;BME280;15850;47.524;7.814;2023-05-25T07:20:53;97963.06;;;13.96;76.99
28665;BME280;15850;47.524;7.814;2023-05-25T07:23:19;97967.78;;;13.51;80.08
28665;BME280;15850;47.524;7.814;2023-05-25T07:25:44;97967.09;;;13.70;78.93
28665;BME280;15850;47.524;7.814;2023-05-25T07:28:10;97970.09;;;13.65;81.33
28665;BME280;15850;47.524;7.814;2023-05-25T07:30:35;97949.78;;;13.50;82.40
28665;BME280;15850;47.524;7.814;2023-05-25T07:33:02;97819.16;;;13.12;81.88
28665;BME280;15850;47.524;7.814;2023-05-25T07:35:28;97972.06;;;14.44;76.39
28665;BME280;15850;47.524;7.814;2023-05-25T07:37:57;97912.50;;;14.21;78.47
28665;BME280;15850;47.524;7.814;2023-05-25T07:40:22;97829.94;;;13.84;80.84
28665;BME280;15850;47.524;7.814;2023-05-25T07:42:48;97964.22;;;15.13;76.29
28665;BME280;15850;47.524;7.814;2023-05-25T07:45:14;97973.97;;;14.75;74.96
28665;BME280;15850;47.524;7.814;2023-05-25T07:47:39;97973.75;;;14.64;74.03
28665;BME280;15850;47.524;7.814;2023-05-25T07:50:07;97972.97;;;14.83;76.08
28665;BME280;15850;47.524;7.814;2023-05-25T07:52:33;97984.44;;;14.89;74.06
28665;BME280;15850;47.524;7.814;2023-05-25T07:54:58;97982.50;;;14.89;77.15
28665;BME280;15850;47.524;7.814;2023-05-25T07:57:24;97978.50;;;15.22;76.14
28665;BME280;15850;47.524;7.814;2023-05-25T07:59:49;97983.59;;;14.85;74.75
28665;BME280;15850;47.524;7.814;2023-05-25T08:02:15;97966.22;;;14.96;74.02
28665;BME280;15850;47.524;7.814;2023-05-25T08:04:40;97982.03;;;15.42;73.13
28665;BME280;15850;47.524;7.814;2023-05-25T08:07:07;97959.91;;;15.31;74.53
28665;BME280;15850;47.524;7.814;2023-05-25T08:09:33;97688.69;;;13.92;74.50
28665;BME280;15850;47.524;7.814;2023-05-25T08:11:58;97908.91;;;15.69;68.06
28665;BME280;15850;47.524;7.814;2023-05-25T08:14:24;97996.19;;;16.55;67.98
28665;BME280;15850;47.524;7.814;2023-05-25T08:16:50;97992.03;;;16.65;68.78
28665;BME280;15850;47.524;7.814;2023-05-25T08:19:16;97957.00;;;16.58;67.32
28665;BME280;15850;47.524;7.814;2023-05-25T08:21:41;97956.81;;;16.97;61.99
28665;BME280;15850;47.524;7.814;2023-05-25T08:24:08;97903.66;;;16.86;62.38
28665;BME280;15850;47.524;7.814;2023-05-25T08:26:34;98002.50;;;17.73;62.41
28665;BME280;15850;47.524;7.814;2023-05-25T08:28:59;97987.09;;;17.01;64.05
28665;BME280;15850;47.524;7.814;2023-05-25T08:31:25;98005.06;;;17.25;64.25
28665;BME280;15850;47.524;7.814;2023-05-25T08:33:51;98016.34;;;17.46;64.80
28665;BME280;15850;47.524;7.814;2023-05-25T08:36:16;97872.81;;;16.70;64.29
28665;BME280;15850;47.524;7.814;2023-05-25T08:38:42;98014.91;;;18.34;61.56
28665;BME280;15850;47.524;7.814;2023-05-25T08:41:11;97884.59;;;17.34;61.51
28665;BME280;15850;47.524;7.814;2023-05-25T08:43:37;98022.94;;;18.05;61.44
28665;BME280;15850;47.524;7.814;2023-05-25T08:46:04;98016.16;;;17.96;61.34
28665;BME280;15850;47.524;7.814;2023-05-25T08:48:32;97957.69;;;17.72;63.13
28665;BME280;15850;47.524;7.814;2023-05-25T08:51:00;98023.84;;;18.20;56.85
28665;BME280;15850;47.524;7.814;2023-05-25T08:53:27;97943.72;;;18.36;56.22
28665;BME280;15850;47.524;7.814;2023-05-25T08:55:54;97840.88;;;17.66;59.61
28665;BME280;15850;47.524;7.814;2023-05-25T08:58:28;98019.66;;;18.82;60.50
28665;BME280;15850;47.524;7.814;2023-05-25T09:00:58;97796.03;;;17.58;57.33
28665;BME280;15850;47.524;7.814;2023-05-25T09:03:28;98012.78;;;19.20;57.63
28665;BME280;15850;47.524;7.814;2023-05-25T09:05:55;97971.69;;;18.93;58.98
28665;BME280;15850;47.524;7.814;2023-05-25T09:08:21;98012.94;;;19.48;54.40
28665;BME280;15850;47.524;7.814;2023-05-25T09:10:47;97802.41;;;18.21;54.61
28665;BME280;15850;47.524;7.814;2023-05-25T09:13:14;98012.38;;;19.14;56.12
28665;BME280;15850;47.524;7.814;2023-05-25T09:15:41;97867.16;;;18.04;55.06
28665;BME280;15850;47.524;7.814;2023-05-25T09:18:07;97929.47;;;18.27;57.25
28665;BME280;15850;47.524;7.814;2023-05-25T09:20:32;98027.31;;;18.54;58.31
28665;BME280;15850;47.524;7.814;2023-05-25T09:22:58;98033.56;;;18.99;57.96
28665;BME280;15850;47.524;7.814;2023-05-25T09:25:24;98039.66;;;18.27;60.72
28665;BME280;15850;47.524;7.814;2023-05-25T09:27:50;97789.47;;;17.29;55.94
28665;BME280;15850;47.524;7.814;2023-05-25T09:30:16;97731.50;;;17.04;56.22
28665;BME280;15850;47.524;7.814;2023-05-25T09:32:43;98000.16;;;18.57;56.63
28665;BME280;15850;47.524;7.814;2023-05-25T09:35:09;97972.88;;;18.96;56.70
28665;BME280;15850;47.524;7.814;2023-05-25T09:37:36;98000.19;;;19.19;55.53
28665;BME280;15850;47.524;7.814;2023-05-25T09:40:02;98051.47;;;19.27;54.92
28665;BME280;15850;47.524;7.814;2023-05-25T09:42:28;98057.16;;;18.97;56.67
28665;BME280;15850;47.524;7.814;2023-05-25T09:44:53;98060.53;;;19.28;56.15
28665;BME280;15850;47.524;7.814;2023-05-25T09:47:19;98003.28;;;18.51;57.07
28665;BME280;15850;47.524;7.814;2023-05-25T09:49:46;98047.19;;;19.40;57.25
28665;BME280;15850;47.524;7.814;2023-05-25T09:52:13;98025.69;;;18.50;58.92
28665;BME280;15850;47.524;7.814;2023-05-25T09:54:38;98014.41;;;19.28;58.55
28665;BME280;15850;47.524;7.814;2023-05-25T09:57:04;97766.34;;;17.78;53.61
28665;BME280;15850;47.524;7.814;2023-05-25T09:59:30;98074.41;;;19.49;57.13
28665;BME280;15850;47.524;7.814;2023-05-25T10:01:56;97992.34;;;19.28;55.26
28665;BME280;15850;47.524;7.814;2023-05-25T10:04:22;98066.84;;;20.30;53.54
28665;BME280;15850;47.524;7.814;2023-05-25T10:06:50;98080.34;;;20.67;53.33
28665;BME280;15850;47.524;7.814;2023-05-25T10:09:17;97832.72;;;19.12;53.12
28665;BME280;15850;47.524;7.814;2023-05-25T10:11:43;98060.50;;;20.26;53.59
28665;BME280;15850;47.524;7.814;2023-05-25T10:14:13;98009.38;;;18.30;57.72
28665;BME280;15850;47.524;7.814;2023-05-25T10:16:44;98080.28;;;18.78;59.99
28665;BME280;15850;47.524;7.814;2023-05-25T10:19:15;98081.00;;;20.10;57.01
28665;BME280;15850;47.524;7.814;2023-05-25T10:21:47;97921.50;;;19.54;53.77
28665;BME280;15850;47.524;7.814;2023-05-25T10:24:23;98092.50;;;20.34;56.67
28665;BME280;15850;47.524;7.814;2023-05-25T10:26:49;98086.97;;;20.41;55.99
28665;BME280;15850;47.524;7.814;2023-05-25T10:29:19;98022.22;;;20.24;53.13
28665;BME280;15850;47.524;7.814;2023-05-25T10:31:45;98080.31;;;20.74;52.48
28665;BME280;15850;47.524;7.814;2023-05-25T10:34:11;97965.31;;;19.73;52.53
28665;BME280;15850;47.524;7.814;2023-05-25T10:36:39;98032.72;;;19.65;55.41
28665;BME280;15850;47.524;7.814;2023-05-25T10:39:06;98058.84;;;19.92;56.62
28665;BME280;15850;47.524;7.814;2023-05-25T10:41:34;98034.84;;;20.18;55.41
28665;BME280;15850;47.524;7.814;2023-05-25T10:44:00;97623.97;;;17.68;51.57
28665;BME280;15850;47.524;7.814;2023-05-25T10:46:26;98108.34;;;20.62;56.06
28665;BME280;15850;47.524;7.814;2023-05-25T10:48:56;98106.00;;;20.82;54.60
28665;BME280;15850;47.524;7.814;2023-05-25T10:51:21;97987.91;;;20.47;52.07
28665;BME280;15850;47.524;7.814;2023-05-25T10:53:59;98073.16;;;21.23;51.00
28665;BME280;15850;47.524;7.814;2023-05-25T10:56:24;98094.00;;;21.71;49.82
28665;BME280;15850;47.524;7.814;2023-05-25T10:58:51;98103.19;;;21.46;52.52
28665;BME280;15850;47.524;7.814;2023-05-25T11:01:17;98062.16;;;20.59;53.72
28665;BME280;15850;47.524;7.814;2023-05-25T11:03:56;98076.31;;;20.32;57.16
28665;BME280;15850;47.524;7.814;2023-05-25T11:06:22;98001.28;;;19.98;54.07
28665;BME280;15850;47.524;7.814;2023-05-25T11:09:22;98107.56;;;20.58;54.11
28665;BME280;15850;47.524;7.814;2023-05-25T11:12:01;98106.38;;;21.16;51.73
28665;BME280;15850;47.524;7.814;2023-05-25T11:14:30;98077.53;;;21.17;52.49
28665;BME280;15850;47.524;7.814;2023-05-25T11:17:06;98106.38;;;20.59;54.29
28665;BME280;15850;47.524;7.814;2023-05-25T11:19:40;98069.81;;;19.64;56.29
28665;BME280;15850;47.524;7.814;2023-05-25T11:22:12;98120.50;;;19.41;58.14
28665;BME280;15850;47.524;7.814;2023-05-25T11:24:37;98096.78;;;19.30;59.59
28665;BME280;15850;47.524;7.814;2023-05-25T11:27:03;98113.97;;;19.64;60.57
28665;BME280;15850;47.524;7.814;2023-05-25T11:29:31;98132.38;;;19.53;60.89
28665;BME280;15850;47.524;7.814;2023-05-25T11:31:56;98065.53;;;19.11;61.51
28665;BME280;15850;47.524;7.814;2023-05-25T11:34:23;97819.94;;;17.54;58.89
28665;BME280;15850;47.524;7.814;2023-05-25T11:36:52;97956.97;;;18.71;60.43
28665;BME280;15850;47.524;7.814;2023-05-25T11:39:19;98061.81;;;19.52;62.42
28665;BME280;15850;47.524;7.814;2023-05-25T11:41:47;97749.56;;;17.46;60.98
28665;BME280;15850;47.524;7.814;2023-05-25T11:44:13;98011.56;;;19.10;61.84
28665;BME280;15850;47.524;7.814;2023-05-25T11:46:40;97887.84;;;18.32;58.42
28665;BME280;15850;47.524;7.814;2023-05-25T11:49:06;98110.44;;;19.67;62.50
28665;BME280;15850;47.524;7.814;2023-05-25T11:51:32;98023.97;;;19.52;63.66
28665;BME280;15850;47.524;7.814;2023-05-25T11:53:57;98116.53;;;20.26;63.60
28665;BME280;15850;47.524;7.814;2023-05-25T11:56:23;98129.13;;;20.06;59.26
28665;BME280;15850;47.524;7.814;2023-05-25T11:58:51;97958.88;;;18.64;60.09
28665;BME280;15850;47.524;7.814;2023-05-25T12:01:17;98104.06;;;19.63;60.55
28665;BME280;15850;47.524;7.814;2023-05-25T12:03:45;97759.03;;;17.52;60.33
28665;BME280;15850;47.524;7.814;2023-05-25T12:06:24;97920.41;;;18.78;60.71
28665;BME280;15850;47.524;7.814;2023-05-25T12:08:50;98056.81;;;19.75;60.81
28665;BME280;15850;47.524;7.814;2023-05-25T12:11:16;98016.84;;;19.40;57.23
28665;BME280;15850;47.524;7.814;2023-05-25T12:13:42;98067.78;;;19.61;58.23
28665;BME280;15850;47.524;7.814;2023-05-25T12:16:07;98112.09;;;19.89;59.71
28665;BME280;15850;47.524;7.814;2023-05-25T12:18:33;98097.16;;;19.98;58.73
28665;BME280;15850;47.524;7.814;2023-05-25T12:21:03;97941.94;;;18.62;58.58
28665;BME280;15850;47.524;7.814;2023-05-25T12:23:29;97930.78;;;19.10;60.30
28665;BME280;15850;47.524;7.814;2023-05-25T12:26:07;97716.84;;;17.86;56.95
28665;BME280;15850;47.524;7.814;2023-05-25T12:28:33;97921.78;;;19.20;58.49
28665;BME280;15850;47.524;7.814;2023-05-25T12:31:18;98104.72;;;20.29;56.92
28665;BME280;15850;47.524;7.814;2023-05-25T12:33:44;97867.69;;;18.87;57.83
28665;BME280;15850;47.524;7.814;2023-05-25T12:36:14;97767.31;;;18.11;57.42
28665;BME280;15850;47.524;7.814;2023-05-25T12:38:39;98086.19;;;20.40;54.67
28665;BME280;15850;47.524;7.814;2023-05-25T12:41:08;98124.97;;;20.94;56.49
28665;BME280;15850;47.524;7.814;2023-05-25T12:43:38;98063.34;;;20.51;54.61
28665;BME280;15850;47.524;7.814;2023-05-25T12:46:03;98109.16;;;20.84;54.09
28665;BME280;15850;47.524;7.814;2023-05-25T12:48:29;98065.31;;;20.72;54.81
28665;BME280;15850;47.524;7.814;2023-05-25T12:50:58;98066.47;;;20.92;55.98
28665;BME280;15850;47.524;7.814;2023-05-25T12:53:25;98115.47;;;21.13;55.27
28665;BME280;15850;47.524;7.814;2023-05-25T12:55:59;98111.50;;;21.21;54.96
28665;BME280;15850;47.524;7.814;2023-05-25T12:58:26;98102.81;;;21.37;53.46
28665;BME280;15850;47.524;7.814;2023-05-25T13:00:52;98063.28;;;21.29;54.99